Impacts METAR Board
IDs:

KEGE - Eagle Cnty Rgnl, CO, US

Updated at: 1200 UTC 07 Jul 2020
Potential Impact None Slight Moderate High
Time 07/00Z 07/01Z 07/02Z 07/03Z 07/04Z 07/05Z 07/06Z 07/07Z 07/08Z 07/09Z 07/10Z 07/11Z 07/12Z
Temp89 88 85 78 71 69 66 61 60 59 56 55 53
Dewpt29 29 33 35 36 36 34 34 35 36 36 36 34
Altim30.13 30.13 30.13 30.14 30.16 30.18 30.18 30.18 30.19 30.19 30.19 30.20 30.22
VIS10 10 10 10 10 10 10 10 10 10 10 10 10
CIG-- -- -- -- -- -- -- -- -- -- -- -- --
CoverCLRCLRCLRCLRCLRCLRCLRCLRCLRCLRCLRCLRCLR
FltCatVFRVFRVFRVFRVFRVFRVFRVFRVFRVFRVFRVFRVFR
WX--------------------------
WDir0320100908031015000140801100
WSpd5 5 9 5 8 4 3 0 0 4 6 4 0
WGst-- -- -- -- -- -- -- -- -- -- -- -- --
Raw hourly METARs
KEGE 062356Z VRB05KT 10SM CLR 32/M02 A3013 RMK AO2 SLP133 6//// T03171017 10322 20267 58016 PNO $
KEGE 070056Z 32005KT 10SM CLR 31/M02 A3013 RMK AO2 SLP130 T03111017 PNO $
KEGE 070156Z AUTO 10009KT 10SM CLR 29/01 A3013 RMK AO2 SLP132 T02940006 PNO $
KEGE 070256Z AUTO 09005KT 10SM CLR 26/02 A3014 RMK AO2 SLP135 6//// T02560017 53001 PNO $
KEGE 070356Z AUTO 08008KT 10SM CLR 22/02 A3016 RMK AO2 SLP144 T02170022 PNO $
KEGE 070456Z AUTO 31004KT 10SM CLR 21/02 A3018 RMK AO2 SLP144 T02060022 PNO $
KEGE 070556Z AUTO 15003KT 10SM CLR 19/01 A3018 RMK AO2 SLP143 6//// T01890011 10322 20183 403220100 51012 PNO $
KEGE 070656Z AUTO 00000KT 10SM CLR 16/01 A3018 RMK AO2 SLP141 T01610011 PNO $
KEGE 070756Z AUTO 00000KT 10SM CLR 16/02 A3019 RMK AO2 SLP145 T01560017 PNO $
KEGE 070856Z AUTO 14004KT 10SM CLR 15/02 A3019 RMK AO2 SLP148 6//// T01500022 50002 PNO $
KEGE 070956Z AUTO 08006KT 10SM CLR 13/02 A3019 RMK AO2 SLP147 T01330022 PNO $
KEGE 071056Z AUTO 11004KT 10SM CLR 13/02 A3020 RMK AO2 SLP152 T01280022 PNO $
KEGE 071156Z AUTO 00000KT 10SM CLR 12/01 A3022 RMK AO2 SLP161 6//// 7//// T01170011 10189 20111 53008 PNO $



Page loaded:  12:34 UTC  |   05:34 AM Pacific  |   06:34 AM Mountain  |   07:34 AM Central  |   08:34 AM Eastern

 

ADVISORIES

FORECASTS

FORECASTS

OBSERVATIONS

USER TOOLS

ABOUT US